Forside
METAR-TAF:

METAR-TAF

Lufthavne :

Kuwait City, Kuwait

Breddekreds: 29-13N, længdekreds: 047-59E, højde: 55 m

Aktuelle vejr

Denne rapport blev lavet for 12 minutter siden, kl. 17:00 UTC
Vind stille
Temperatur 39°C
Fugtighed 18%
Tryk 999 hPa
Sigt 10 km eller mere
ingen skyer under 1500m og ingen cumulonimbus

METAR: OKBK 251700Z 00000KT CAVOK 39/10 Q0999 NOSIG

Tid: 20:12 (17:12 UTC)

Vejrudsigter

Denne rapport blev lavet for 6 timer og 27 minutter siden, kl. 10:45 UTC
Foreløbig gælder fra 25 på 12 UTC til 26 på 18 UTC
Vind 8 kt fra nordnordvest med vindstød på up til 18 kt
Sigt: 7000 m
skyfri

TAF: OKBK 251045Z 2512/2618 34008G18KT 7000 SKC

Vejrobservationer og prognoser fra mere end 4000 lufthavne (METAR og TAF).

De gule og røde prikker repræsenterer de meteorologiske stationer.

Flyt musen over at se navnet på stationen.

Så klik over at se vejr observationer og prognoser.

At skifte det kort: Klik på de grønne knapper med et sort kors for at zoome ind; på den grønne knap med en bindestreg for at zoome ud; eller på de grønne pile for tilstødende kort.


METAR-TAF: